sensor_id;sensor_type;location;lat;lon;timestamp;temperature;humidity
12434;DHT22;6281;49.038;8.372;2023-02-13T00:00:43;4.90;99.90
12434;DHT22;6281;49.038;8.372;2023-02-13T00:03:13;4.80;99.90
12434;DHT22;6281;49.038;8.372;2023-02-13T00:05:39;4.70;99.90
12434;DHT22;6281;49.038;8.372;2023-02-13T00:08:07;4.80;99.90
12434;DHT22;6281;49.038;8.372;2023-02-13T00:10:33;4.70;99.90
12434;DHT22;6281;49.038;8.372;2023-02-13T00:13:00;4.70;99.90
12434;DHT22;6281;49.038;8.372;2023-02-13T00:15:27;4.80;99.90
12434;DHT22;6281;49.038;8.372;2023-02-13T00:17:54;4.60;99.90
12434;DHT22;6281;49.038;8.372;2023-02-13T00:20:23;4.80;99.90
12434;DHT22;6281;49.038;8.372;2023-02-13T00:22:50;4.60;99.90
12434;DHT22;6281;49.038;8.372;2023-02-13T00:25:17;4.70;99.90
12434;DHT22;6281;49.038;8.372;2023-02-13T00:27:44;4.60;99.90
12434;DHT22;6281;49.038;8.372;2023-02-13T00:30:11;4.50;99.90
12434;DHT22;6281;49.038;8.372;2023-02-13T00:32:39;4.60;99.90
12434;DHT22;6281;49.038;8.372;2023-02-13T00:35:06;4.80;99.90
12434;DHT22;6281;49.038;8.372;2023-02-13T00:37:34;4.70;99.90
12434;DHT22;6281;49.038;8.372;2023-02-13T00:40:01;4.70;99.90
12434;DHT22;6281;49.038;8.372;2023-02-13T00:42:29;4.60;99.90
12434;DHT22;6281;49.038;8.372;2023-02-13T00:44:55;4.60;99.90
12434;DHT22;6281;49.038;8.372;2023-02-13T00:47:22;4.50;99.90
12434;DHT22;6281;49.038;8.372;2023-02-13T00:49:49;4.50;99.90
12434;DHT22;6281;49.038;8.372;2023-02-13T00:52:16;4.50;99.90
12434;DHT22;6281;49.038;8.372;2023-02-13T00:54:45;4.50;99.90
12434;DHT22;6281;49.038;8.372;2023-02-13T01:00:27;4.50;99.90
12434;DHT22;6281;49.038;8.372;2023-02-13T01:02:54;4.30;99.90
12434;DHT22;6281;49.038;8.372;2023-02-13T01:05:21;4.50;99.90
12434;DHT22;6281;49.038;8.372;2023-02-13T01:07:49;4.30;99.90
12434;DHT22;6281;49.038;8.372;2023-02-13T01:10:18;4.20;99.90
12434;DHT22;6281;49.038;8.372;2023-02-13T01:12:45;3.90;99.90
12434;DHT22;6281;49.038;8.372;2023-02-13T01:15:12;4.20;99.90
12434;DHT22;6281;49.038;8.372;2023-02-13T01:17:39;4.20;99.90
12434;DHT22;6281;49.038;8.372;2023-02-13T01:20:06;4.00;99.90
12434;DHT22;6281;49.038;8.372;2023-02-13T01:22:34;4.10;99.90
12434;DHT22;6281;49.038;8.372;2023-02-13T01:25:01;4.10;99.90
12434;DHT22;6281;49.038;8.372;2023-02-13T01:27:29;4.20;99.90
12434;DHT22;6281;49.038;8.372;2023-02-13T01:29:57;4.30;99.90
12434;DHT22;6281;49.038;8.372;2023-02-13T01:32:24;4.00;99.90
12434;DHT22;6281;49.038;8.372;2023-02-13T01:34:51;4.10;99.90
12434;DHT22;6281;49.038;8.372;2023-02-13T01:37:18;4.20;99.90
12434;DHT22;6281;49.038;8.372;2023-02-13T01:39:45;4.20;99.90
12434;DHT22;6281;49.038;8.372;2023-02-13T01:42:14;4.20;99.90
12434;DHT22;6281;49.038;8.372;2023-02-13T01:44:54;4.20;99.90
12434;DHT22;6281;49.038;8.372;2023-02-13T01:47:25;4.10;99.90
12434;DHT22;6281;49.038;8.372;2023-02-13T01:50:01;4.00;99.90
12434;DHT22;6281;49.038;8.372;2023-02-13T01:52:29;4.00;99.90
12434;DHT22;6281;49.038;8.372;2023-02-13T01:54:56;4.00;99.90
12434;DHT22;6281;49.038;8.372;2023-02-13T01:57:24;4.00;99.90
12434;DHT22;6281;49.038;8.372;2023-02-13T01:59:58;4.00;99.90
12434;DHT22;6281;49.038;8.372;2023-02-13T02:02:27;3.90;99.90
12434;DHT22;6281;49.038;8.372;2023-02-13T02:04:57;3.80;99.90
12434;DHT22;6281;49.038;8.372;2023-02-13T02:07:26;4.00;99.90
12434;DHT22;6281;49.038;8.372;2023-02-13T02:09:58;3.80;99.90
12434;DHT22;6281;49.038;8.372;2023-02-13T02:12:31;3.60;99.90
12434;DHT22;6281;49.038;8.372;2023-02-13T02:15:01;3.90;99.90
12434;DHT22;6281;49.038;8.372;2023-02-13T02:17:29;3.90;99.90
12434;DHT22;6281;49.038;8.372;2023-02-13T02:20:03;3.80;99.90
12434;DHT22;6281;49.038;8.372;2023-02-13T02:26:02;3.70;99.90
12434;DHT22;6281;49.038;8.372;2023-02-13T02:29:17;3.40;99.90
12434;DHT22;6281;49.038;8.372;2023-02-13T02:32:20;3.40;99.90
12434;DHT22;6281;49.038;8.372;2023-02-13T02:34:55;3.60;99.90
12434;DHT22;6281;49.038;8.372;2023-02-13T02:37:43;3.20;99.90
12434;DHT22;6281;49.038;8.372;2023-02-13T02:40:23;3.10;99.90
12434;DHT22;6281;49.038;8.372;2023-02-13T02:42:59;3.20;99.90
12434;DHT22;6281;49.038;8.372;2023-02-13T02:45:35;3.10;99.90
12434;DHT22;6281;49.038;8.372;2023-02-13T02:48:09;3.40;99.90
12434;DHT22;6281;49.038;8.372;2023-02-13T02:50:59;3.30;99.90
12434;DHT22;6281;49.038;8.372;2023-02-13T02:53:34;3.40;99.90
12434;DHT22;6281;49.038;8.372;2023-02-13T02:56:09;3.20;99.90
12434;DHT22;6281;49.038;8.372;2023-02-13T02:58:39;3.30;99.90
12434;DHT22;6281;49.038;8.372;2023-02-13T03:01:27;3.20;99.90
12434;DHT22;6281;49.038;8.372;2023-02-13T03:04:18;3.10;99.90
12434;DHT22;6281;49.038;8.372;2023-02-13T03:07:06;3.30;99.90
12434;DHT22;6281;49.038;8.372;2023-02-13T03:09:38;3.30;99.90
12434;DHT22;6281;49.038;8.372;2023-02-13T03:12:24;3.30;99.90
12434;DHT22;6281;49.038;8.372;2023-02-13T03:15:12;3.30;99.90
12434;DHT22;6281;49.038;8.372;2023-02-13T03:17:39;3.30;99.90
12434;DHT22;6281;49.038;8.372;2023-02-13T03:20:35;3.20;99.90
12434;DHT22;6281;49.038;8.372;2023-02-13T03:23:31;3.20;99.90
12434;DHT22;6281;49.038;8.372;2023-02-13T03:29:21;3.10;99.90
12434;DHT22;6281;49.038;8.372;2023-02-13T03:32:14;3.20;99.90
12434;DHT22;6281;49.038;8.372;2023-02-13T03:34:51;3.10;99.90
12434;DHT22;6281;49.038;8.372;2023-02-13T03:37:43;3.00;99.90
12434;DHT22;6281;49.038;8.372;2023-02-13T03:40:27;3.00;99.90
12434;DHT22;6281;49.038;8.372;2023-02-13T03:43:02;3.30;99.90
12434;DHT22;6281;49.038;8.372;2023-02-13T03:45:33;3.30;99.90
12434;DHT22;6281;49.038;8.372;2023-02-13T03:48:25;3.00;99.90
12434;DHT22;6281;49.038;8.372;2023-02-13T03:51:14;3.10;99.90
12434;DHT22;6281;49.038;8.372;2023-02-13T03:53:45;3.20;99.90
12434;DHT22;6281;49.038;8.372;2023-02-13T03:56:15;3.30;99.90
12434;DHT22;6281;49.038;8.372;2023-02-13T03:59:01;3.20;99.90
12434;DHT22;6281;49.038;8.372;2023-02-13T04:01:49;3.40;99.90
12434;DHT22;6281;49.038;8.372;2023-02-13T04:04:23;3.30;99.90
12434;DHT22;6281;49.038;8.372;2023-02-13T04:06:53;3.30;99.90
12434;DHT22;6281;49.038;8.372;2023-02-13T04:09:24;3.40;99.90
12434;DHT22;6281;49.038;8.372;2023-02-13T04:11:57;3.40;99.90
12434;DHT22;6281;49.038;8.372;2023-02-13T04:14:34;3.30;99.90
12434;DHT22;6281;49.038;8.372;2023-02-13T04:17:04;3.30;99.90
12434;DHT22;6281;49.038;8.372;2023-02-13T04:19:32;3.20;99.90
12434;DHT22;6281;49.038;8.372;2023-02-13T04:22:00;3.20;99.90
12434;DHT22;6281;49.038;8.372;2023-02-13T04:24:28;3.30;99.90
12434;DHT22;6281;49.038;8.372;2023-02-13T04:26:56;3.30;99.90
12434;DHT22;6281;49.038;8.372;2023-02-13T04:29:24;3.30;99.90
12434;DHT22;6281;49.038;8.372;2023-02-13T04:31:51;3.40;99.90
12434;DHT22;6281;49.038;8.372;2023-02-13T04:34:18;3.40;99.90
12434;DHT22;6281;49.038;8.372;2023-02-13T04:36:45;3.30;99.90
12434;DHT22;6281;49.038;8.372;2023-02-13T04:39:12;3.10;99.90
12434;DHT22;6281;49.038;8.372;2023-02-13T04:41:40;2.90;99.90
12434;DHT22;6281;49.038;8.372;2023-02-13T04:44:07;3.00;99.90
12434;DHT22;6281;49.038;8.372;2023-02-13T04:46:34;3.00;99.90
12434;DHT22;6281;49.038;8.372;2023-02-13T04:49:01;3.00;99.90
12434;DHT22;6281;49.038;8.372;2023-02-13T04:51:27;2.90;99.90
12434;DHT22;6281;49.038;8.372;2023-02-13T04:53:54;2.90;99.90
12434;DHT22;6281;49.038;8.372;2023-02-13T04:56:21;2.80;99.90
12434;DHT22;6281;49.038;8.372;2023-02-13T04:58:50;2.80;99.90
12434;DHT22;6281;49.038;8.372;2023-02-13T05:01:17;2.90;99.90
12434;DHT22;6281;49.038;8.372;2023-02-13T05:03:44;2.90;99.90
12434;DHT22;6281;49.038;8.372;2023-02-13T05:06:11;2.90;99.90
12434;DHT22;6281;49.038;8.372;2023-02-13T05:08:37;2.90;99.90
12434;DHT22;6281;49.038;8.372;2023-02-13T05:11:05;3.00;99.90
12434;DHT22;6281;49.038;8.372;2023-02-13T05:13:32;2.80;99.90
12434;DHT22;6281;49.038;8.372;2023-02-13T05:16:01;2.90;99.90
12434;DHT22;6281;49.038;8.372;2023-02-13T05:18:27;2.90;99.90
12434;DHT22;6281;49.038;8.372;2023-02-13T05:20:54;3.00;99.90
12434;DHT22;6281;49.038;8.372;2023-02-13T05:23:39;2.90;99.90
12434;DHT22;6281;49.038;8.372;2023-02-13T05:26:06;2.80;99.90
12434;DHT22;6281;49.038;8.372;2023-02-13T05:28:32;2.70;99.90
12434;DHT22;6281;49.038;8.372;2023-02-13T05:31:18;2.70;99.90
12434;DHT22;6281;49.038;8.372;2023-02-13T05:33:45;2.70;99.90
12434;DHT22;6281;49.038;8.372;2023-02-13T05:36:12;2.80;99.90
12434;DHT22;6281;49.038;8.372;2023-02-13T05:38:39;2.80;99.90
12434;DHT22;6281;49.038;8.372;2023-02-13T05:41:06;2.80;99.90
12434;DHT22;6281;49.038;8.372;2023-02-13T05:43:33;2.60;99.90
12434;DHT22;6281;49.038;8.372;2023-02-13T05:46:02;2.70;99.90
12434;DHT22;6281;49.038;8.372;2023-02-13T05:48:31;2.70;99.90
12434;DHT22;6281;49.038;8.372;2023-02-13T05:50:58;2.70;99.90
12434;DHT22;6281;49.038;8.372;2023-02-13T05:53:25;2.80;99.90
12434;DHT22;6281;49.038;8.372;2023-02-13T05:55:52;2.80;99.90
12434;DHT22;6281;49.038;8.372;2023-02-13T05:58:19;2.60;99.90
12434;DHT22;6281;49.038;8.372;2023-02-13T06:00:46;2.60;99.90
12434;DHT22;6281;49.038;8.372;2023-02-13T06:03:13;2.30;99.90
12434;DHT22;6281;49.038;8.372;2023-02-13T06:05:42;2.70;99.90
12434;DHT22;6281;49.038;8.372;2023-02-13T06:08:09;2.80;99.90
12434;DHT22;6281;49.038;8.372;2023-02-13T06:10:36;2.80;99.90
12434;DHT22;6281;49.038;8.372;2023-02-13T06:13:03;2.80;99.90
12434;DHT22;6281;49.038;8.372;2023-02-13T06:15:30;2.90;99.90
12434;DHT22;6281;49.038;8.372;2023-02-13T06:17:57;2.80;99.90
12434;DHT22;6281;49.038;8.372;2023-02-13T06:20:24;2.80;99.90
12434;DHT22;6281;49.038;8.372;2023-02-13T06:22:52;2.80;99.90
12434;DHT22;6281;49.038;8.372;2023-02-13T06:25:20;2.70;99.90
12434;DHT22;6281;49.038;8.372;2023-02-13T06:27:47;2.70;99.90
12434;DHT22;6281;49.038;8.372;2023-02-13T06:30:15;2.60;99.90
12434;DHT22;6281;49.038;8.372;2023-02-13T06:32:42;2.60;99.90
12434;DHT22;6281;49.038;8.372;2023-02-13T06:35:09;2.40;99.90
12434;DHT22;6281;49.038;8.372;2023-02-13T06:37:36;2.60;99.90
12434;DHT22;6281;49.038;8.372;2023-02-13T06:40:06;2.60;99.90
12434;DHT22;6281;49.038;8.372;2023-02-13T06:42:33;2.70;99.90
12434;DHT22;6281;49.038;8.372;2023-02-13T06:45:02;2.50;99.90
12434;DHT22;6281;49.038;8.372;2023-02-13T06:47:29;2.30;99.90
12434;DHT22;6281;49.038;8.372;2023-02-13T06:49:56;2.40;99.90
12434;DHT22;6281;49.038;8.372;2023-02-13T06:52:22;2.10;99.90
12434;DHT22;6281;49.038;8.372;2023-02-13T06:54:49;2.30;99.90
12434;DHT22;6281;49.038;8.372;2023-02-13T06:57:18;2.60;99.90
12434;DHT22;6281;49.038;8.372;2023-02-13T06:59:44;2.60;99.90
12434;DHT22;6281;49.038;8.372;2023-02-13T07:02:12;2.70;99.90
12434;DHT22;6281;49.038;8.372;2023-02-13T07:04:39;2.30;99.90
12434;DHT22;6281;49.038;8.372;2023-02-13T07:07:06;1.90;99.90
12434;DHT22;6281;49.038;8.372;2023-02-13T07:09:33;2.20;99.90
12434;DHT22;6281;49.038;8.372;2023-02-13T07:12:02;2.60;99.90
12434;DHT22;6281;49.038;8.372;2023-02-13T07:14:30;2.60;99.90
12434;DHT22;6281;49.038;8.372;2023-02-13T07:16:57;2.60;99.90
12434;DHT22;6281;49.038;8.372;2023-02-13T07:19:24;2.50;99.90
12434;DHT22;6281;49.038;8.372;2023-02-13T07:21:51;2.60;99.90
12434;DHT22;6281;49.038;8.372;2023-02-13T07:24:18;2.60;99.90
12434;DHT22;6281;49.038;8.372;2023-02-13T07:26:45;2.90;99.90
12434;DHT22;6281;49.038;8.372;2023-02-13T07:29:12;3.00;99.90
12434;DHT22;6281;49.038;8.372;2023-02-13T07:31:40;3.10;99.90
12434;DHT22;6281;49.038;8.372;2023-02-13T07:34:07;3.00;99.90
12434;DHT22;6281;49.038;8.372;2023-02-13T07:36:34;3.20;99.90
12434;DHT22;6281;49.038;8.372;2023-02-13T07:39:01;3.20;99.90
12434;DHT22;6281;49.038;8.372;2023-02-13T07:41:28;3.00;99.90
12434;DHT22;6281;49.038;8.372;2023-02-13T07:43:55;3.00;99.90
12434;DHT22;6281;49.038;8.372;2023-02-13T07:46:21;3.10;99.90
12434;DHT22;6281;49.038;8.372;2023-02-13T07:48:52;2.90;99.90
12434;DHT22;6281;49.038;8.372;2023-02-13T07:51:19;2.80;99.90
12434;DHT22;6281;49.038;8.372;2023-02-13T07:53:49;3.00;99.90
12434;DHT22;6281;49.038;8.372;2023-02-13T07:56:16;2.60;99.90
12434;DHT22;6281;49.038;8.372;2023-02-13T07:58:43;2.90;99.90
12434;DHT22;6281;49.038;8.372;2023-02-13T08:01:12;2.70;99.90
12434;DHT22;6281;49.038;8.372;2023-02-13T08:03:40;3.00;99.90
12434;DHT22;6281;49.038;8.372;2023-02-13T08:06:08;3.30;99.90
12434;DHT22;6281;49.038;8.372;2023-02-13T08:08:35;3.50;99.90
12434;DHT22;6281;49.038;8.372;2023-02-13T08:11:04;3.70;99.90
12434;DHT22;6281;49.038;8.372;2023-02-13T08:13:50;3.70;99.90
12434;DHT22;6281;49.038;8.372;2023-02-13T08:16:17;3.60;99.90
12434;DHT22;6281;49.038;8.372;2023-02-13T08:18:44;3.70;99.90
12434;DHT22;6281;49.038;8.372;2023-02-13T08:21:12;3.70;99.90
12434;DHT22;6281;49.038;8.372;2023-02-13T08:23:40;3.70;99.90
12434;DHT22;6281;49.038;8.372;2023-02-13T08:26:07;3.70;99.90
12434;DHT22;6281;49.038;8.372;2023-02-13T08:28:33;3.70;99.90
12434;DHT22;6281;49.038;8.372;2023-02-13T08:31:00;3.70;99.90
12434;DHT22;6281;49.038;8.372;2023-02-13T08:33:27;3.90;99.90
12434;DHT22;6281;49.038;8.372;2023-02-13T08:35:54;4.20;99.90
12434;DHT22;6281;49.038;8.372;2023-02-13T08:38:22;4.00;99.90
12434;DHT22;6281;49.038;8.372;2023-02-13T08:40:49;4.20;99.90
12434;DHT22;6281;49.038;8.372;2023-02-13T08:43:16;4.20;99.90
12434;DHT22;6281;49.038;8.372;2023-02-13T08:45:43;4.40;99.90
12434;DHT22;6281;49.038;8.372;2023-02-13T08:48:10;4.50;99.90
12434;DHT22;6281;49.038;8.372;2023-02-13T08:50:37;4.60;99.90
12434;DHT22;6281;49.038;8.372;2023-02-13T08:53:04;4.60;99.90
12434;DHT22;6281;49.038;8.372;2023-02-13T08:55:32;4.60;99.90
12434;DHT22;6281;49.038;8.372;2023-02-13T08:58:00;4.60;99.90
12434;DHT22;6281;49.038;8.372;2023-02-13T09:00:27;4.90;99.90
12434;DHT22;6281;49.038;8.372;2023-02-13T09:02:54;5.90;99.90
12434;DHT22;6281;49.038;8.372;2023-02-13T09:05:21;5.80;99.90
12434;DHT22;6281;49.038;8.372;2023-02-13T09:07:48;5.60;99.90
12434;DHT22;6281;49.038;8.372;2023-02-13T09:10:15;5.60;99.90
12434;DHT22;6281;49.038;8.372;2023-02-13T09:12:43;7.50;99.90
12434;DHT22;6281;49.038;8.372;2023-02-13T09:15:10;8.60;99.90
12434;DHT22;6281;49.038;8.372;2023-02-13T09:17:37;8.80;99.90
12434;DHT22;6281;49.038;8.372;2023-02-13T09:20:04;9.20;99.90
12434;DHT22;6281;49.038;8.372;2023-02-13T09:22:34;9.50;99.90
12434;DHT22;6281;49.038;8.372;2023-02-13T09:25:00;9.20;99.90
12434;DHT22;6281;49.038;8.372;2023-02-13T09:27:28;9.60;99.90
12434;DHT22;6281;49.038;8.372;2023-02-13T09:29:57;10.00;99.90
12434;DHT22;6281;49.038;8.372;2023-02-13T09:32:24;9.90;99.90
12434;DHT22;6281;49.038;8.372;2023-02-13T09:34:51;9.70;99.90
12434;DHT22;6281;49.038;8.372;2023-02-13T09:37:18;10.50;99.90
12434;DHT22;6281;49.038;8.372;2023-02-13T09:39:45;10.50;99.90
12434;DHT22;6281;49.038;8.372;2023-02-13T09:42:18;9.20;99.90
12434;DHT22;6281;49.038;8.372;2023-02-13T09:44:47;7.10;99.90
12434;DHT22;6281;49.038;8.372;2023-02-13T09:47:46;6.70;99.90
12434;DHT22;6281;49.038;8.372;2023-02-13T09:50:17;6.30;99.90
12434;DHT22;6281;49.038;8.372;2023-02-13T09:52:48;6.40;99.90
12434;DHT22;6281;49.038;8.372;2023-02-13T09:55:17;6.10;99.90
12434;DHT22;6281;49.038;8.372;2023-02-13T09:57:50;6.50;99.90
12434;DHT22;6281;49.038;8.372;2023-02-13T10:00:21;6.40;99.90
12434;DHT22;6281;49.038;8.372;2023-02-13T10:03:05;6.60;99.90
12434;DHT22;6281;49.038;8.372;2023-02-13T10:05:41;6.40;99.90
12434;DHT22;6281;49.038;8.372;2023-02-13T10:08:19;6.50;99.90
12434;DHT22;6281;49.038;8.372;2023-02-13T10:10:50;6.60;99.90
12434;DHT22;6281;49.038;8.372;2023-02-13T10:13:30;6.40;99.90
12434;DHT22;6281;49.038;8.372;2023-02-13T10:16:05;6.60;99.90
12434;DHT22;6281;49.038;8.372;2023-02-13T10:18:42;6.70;99.90
12434;DHT22;6281;49.038;8.372;2023-02-13T10:21:11;6.90;99.90
12434;DHT22;6281;49.038;8.372;2023-02-13T10:23:42;6.90;99.90
12434;DHT22;6281;49.038;8.372;2023-02-13T10:26:15;6.90;99.90
12434;DHT22;6281;49.038;8.372;2023-02-13T10:28:45;6.90;99.90
12434;DHT22;6281;49.038;8.372;2023-02-13T10:31:35;7.40;99.90
12434;DHT22;6281;49.038;8.372;2023-02-13T10:34:11;7.80;99.90
12434;DHT22;6281;49.038;8.372;2023-02-13T10:36:42;7.70;99.90
12434;DHT22;6281;49.038;8.372;2023-02-13T10:39:20;7.80;99.90
12434;DHT22;6281;49.038;8.372;2023-02-13T10:41:50;7.50;99.90
12434;DHT22;6281;49.038;8.372;2023-02-13T10:44:31;7.50;99.90
12434;DHT22;6281;49.038;8.372;2023-02-13T10:47:11;7.40;99.90
12434;DHT22;6281;49.038;8.372;2023-02-13T10:49:54;7.60;99.90
12434;DHT22;6281;49.038;8.372;2023-02-13T10:52:29;7.30;99.90
12434;DHT22;6281;49.038;8.372;2023-02-13T10:55:20;6.90;99.90
12434;DHT22;6281;49.038;8.372;2023-02-13T10:58:02;7.30;99.90
12434;DHT22;6281;49.038;8.372;2023-02-13T11:00:34;7.20;99.90
12434;DHT22;6281;49.038;8.372;2023-02-13T11:03:03;8.00;99.90
12434;DHT22;6281;49.038;8.372;2023-02-13T11:05:34;7.70;99.90
12434;DHT22;6281;49.038;8.372;2023-02-13T11:08:02;7.90;99.90
12434;DHT22;6281;49.038;8.372;2023-02-13T11:10:29;8.10;99.90
12434;DHT22;6281;49.038;8.372;2023-02-13T11:12:59;8.70;99.90
12434;DHT22;6281;49.038;8.372;2023-02-13T11:15:40;10.70;99.90
12434;DHT22;6281;49.038;8.372;2023-02-13T11:18:14;9.10;99.90
12434;DHT22;6281;49.038;8.372;2023-02-13T11:20:46;8.20;99.90
12434;DHT22;6281;49.038;8.372;2023-02-13T11:23:27;8.20;99.90
12434;DHT22;6281;49.038;8.372;2023-02-13T11:26:01;9.40;99.90
12434;DHT22;6281;49.038;8.372;2023-02-13T11:28:30;9.90;99.90
12434;DHT22;6281;49.038;8.372;2023-02-13T11:31:20;8.60;99.90
12434;DHT22;6281;49.038;8.372;2023-02-13T11:33:48;8.30;99.90
12434;DHT22;6281;49.038;8.372;2023-02-13T11:36:23;8.80;99.90
12434;DHT22;6281;49.038;8.372;2023-02-13T11:38:57;8.60;99.90
12434;DHT22;6281;49.038;8.372;2023-02-13T11:41:25;8.70;99.90
12434;DHT22;6281;49.038;8.372;2023-02-13T11:43:54;8.50;99.90
12434;DHT22;6281;49.038;8.372;2023-02-13T11:46:27;8.20;99.90
12434;DHT22;6281;49.038;8.372;2023-02-13T11:49:00;7.90;99.90
12434;DHT22;6281;49.038;8.372;2023-02-13T11:51:40;10.40;99.90
12434;DHT22;6281;49.038;8.372;2023-02-13T11:54:28;10.70;99.90
12434;DHT22;6281;49.038;8.372;2023-02-13T11:56:58;10.30;99.90
12434;DHT22;6281;49.038;8.372;2023-02-13T11:59:29;10.40;99.90
12434;DHT22;6281;49.038;8.372;2023-02-13T12:02:02;11.50;99.90
12434;DHT22;6281;49.038;8.372;2023-02-13T12:04:29;14.40;99.90
12434;DHT22;6281;49.038;8.372;2023-02-13T12:07:00;14.90;96.00
12434;DHT22;6281;49.038;8.372;2023-02-13T12:09:29;15.30;95.30
12434;DHT22;6281;49.038;8.372;2023-02-13T12:11:59;17.70;73.10
12434;DHT22;6281;49.038;8.372;2023-02-13T12:14:30;19.10;62.60
12434;DHT22;6281;49.038;8.372;2023-02-13T12:17:01;18.20;60.50
12434;DHT22;6281;49.038;8.372;2023-02-13T12:19:34;17.60;58.60
12434;DHT22;6281;49.038;8.372;2023-02-13T12:22:26;16.20;65.80
12434;DHT22;6281;49.038;8.372;2023-02-13T12:27:56;18.50;61.00
12434;DHT22;6281;49.038;8.372;2023-02-13T12:34:10;18.10;60.00
12434;DHT22;6281;49.038;8.372;2023-02-13T12:36:49;17.70;61.20
12434;DHT22;6281;49.038;8.372;2023-02-13T12:39:24;15.90;75.10
12434;DHT22;6281;49.038;8.372;2023-02-13T12:42:04;16.50;72.60
12434;DHT22;6281;49.038;8.372;2023-02-13T12:44:56;13.70;99.90
12434;DHT22;6281;49.038;8.372;2023-02-13T12:47:28;14.30;99.00
12434;DHT22;6281;49.038;8.372;2023-02-13T12:50:23;13.10;99.90
12434;DHT22;6281;49.038;8.372;2023-02-13T12:53:03;14.00;99.90
12434;DHT22;6281;49.038;8.372;2023-02-13T12:55:52;13.70;99.90
12434;DHT22;6281;49.038;8.372;2023-02-13T12:58:36;13.40;99.90
12434;DHT22;6281;49.038;8.372;2023-02-13T13:01:13;14.40;99.90
12434;DHT22;6281;49.038;8.372;2023-02-13T13:03:49;13.90;99.90
12434;DHT22;6281;49.038;8.372;2023-02-13T13:06:39;14.90;99.90
12434;DHT22;6281;49.038;8.372;2023-02-13T13:09:35;14.10;99.90
12434;DHT22;6281;49.038;8.372;2023-02-13T13:12:27;15.00;99.90
12434;DHT22;6281;49.038;8.372;2023-02-13T13:15:01;14.90;99.30
12434;DHT22;6281;49.038;8.372;2023-02-13T13:17:46;14.60;99.90
12434;DHT22;6281;49.038;8.372;2023-02-13T13:20:47;14.80;99.90
12434;DHT22;6281;49.038;8.372;2023-02-13T13:23:19;14.90;99.90
12434;DHT22;6281;49.038;8.372;2023-02-13T13:25:52;14.20;99.90
12434;DHT22;6281;49.038;8.372;2023-02-13T13:28:26;14.70;99.90
12434;DHT22;6281;49.038;8.372;2023-02-13T13:30:56;15.80;95.70
12434;DHT22;6281;49.038;8.372;2023-02-13T13:33:25;15.70;96.50
12434;DHT22;6281;49.038;8.372;2023-02-13T13:35:57;14.80;99.90
12434;DHT22;6281;49.038;8.372;2023-02-13T13:38:35;14.70;99.90
12434;DHT22;6281;49.038;8.372;2023-02-13T13:41:10;14.80;99.90
12434;DHT22;6281;49.038;8.372;2023-02-13T13:43:53;15.20;99.90
12434;DHT22;6281;49.038;8.372;2023-02-13T13:46:30;14.90;99.60
12434;DHT22;6281;49.038;8.372;2023-02-13T13:49:09;15.20;97.50
12434;DHT22;6281;49.038;8.372;2023-02-13T13:51:39;15.40;99.50
12434;DHT22;6281;49.038;8.372;2023-02-13T13:54:24;15.80;88.00
12434;DHT22;6281;49.038;8.372;2023-02-13T13:57:05;16.40;88.20
12434;DHT22;6281;49.038;8.372;2023-02-13T14:02:45;15.90;90.90
12434;DHT22;6281;49.038;8.372;2023-02-13T14:05:20;16.00;91.80
12434;DHT22;6281;49.038;8.372;2023-02-13T14:07:50;16.00;84.50
12434;DHT22;6281;49.038;8.372;2023-02-13T14:13:36;16.20;80.70
12434;DHT22;6281;49.038;8.372;2023-02-13T14:16:04;15.10;90.10
12434;DHT22;6281;49.038;8.372;2023-02-13T14:18:33;15.10;93.20
12434;DHT22;6281;49.038;8.372;2023-02-13T14:21:01;15.00;98.00
12434;DHT22;6281;49.038;8.372;2023-02-13T14:23:33;14.80;97.00
12434;DHT22;6281;49.038;8.372;2023-02-13T14:26:35;14.80;99.90
12434;DHT22;6281;49.038;8.372;2023-02-13T14:29:24;15.20;95.60
12434;DHT22;6281;49.038;8.372;2023-02-13T14:32:17;15.40;94.80
12434;DHT22;6281;49.038;8.372;2023-02-13T14:34:53;15.50;92.10
12434;DHT22;6281;49.038;8.372;2023-02-13T14:37:27;15.60;91.10
12434;DHT22;6281;49.038;8.372;2023-02-13T14:43:19;15.50;92.00
12434;DHT22;6281;49.038;8.372;2023-02-13T14:45:50;15.20;91.60
12434;DHT22;6281;49.038;8.372;2023-02-13T14:48:19;15.00;93.00
12434;DHT22;6281;49.038;8.372;2023-02-13T14:50:51;15.40;93.00
12434;DHT22;6281;49.038;8.372;2023-02-13T14:53:23;15.40;93.90
12434;DHT22;6281;49.038;8.372;2023-02-13T14:55:56;14.90;99.90
12434;DHT22;6281;49.038;8.372;2023-02-13T14:58:27;14.60;96.00
12434;DHT22;6281;49.038;8.372;2023-02-13T15:00:59;13.30;99.90
12434;DHT22;6281;49.038;8.372;2023-02-13T15:03:35;12.80;99.90
12434;DHT22;6281;49.038;8.372;2023-02-13T15:06:10;13.50;99.90
12434;DHT22;6281;49.038;8.372;2023-02-13T15:08:47;13.80;99.90
12434;DHT22;6281;49.038;8.372;2023-02-13T15:11:36;13.00;99.90
12434;DHT22;6281;49.038;8.372;2023-02-13T15:14:20;13.10;99.90
12434;DHT22;6281;49.038;8.372;2023-02-13T15:16:50;11.40;99.90
12434;DHT22;6281;49.038;8.372;2023-02-13T15:19:19;12.10;99.90
12434;DHT22;6281;49.038;8.372;2023-02-13T15:22:27;12.40;99.90
12434;DHT22;6281;49.038;8.372;2023-02-13T15:24:55;12.80;99.90
12434;DHT22;6281;49.038;8.372;2023-02-13T15:27:25;13.20;99.90
12434;DHT22;6281;49.038;8.372;2023-02-13T15:29:55;12.70;99.90
12434;DHT22;6281;49.038;8.372;2023-02-13T15:32:27;12.40;99.90
12434;DHT22;6281;49.038;8.372;2023-02-13T15:34:54;12.40;99.90
12434;DHT22;6281;49.038;8.372;2023-02-13T15:37:22;12.20;99.90
12434;DHT22;6281;49.038;8.372;2023-02-13T15:39:50;12.40;99.90
12434;DHT22;6281;49.038;8.372;2023-02-13T15:42:17;13.20;99.90
12434;DHT22;6281;49.038;8.372;2023-02-13T15:44:46;12.90;99.90
12434;DHT22;6281;49.038;8.372;2023-02-13T15:47:17;11.70;99.90
12434;DHT22;6281;49.038;8.372;2023-02-13T15:49:46;12.20;99.90
12434;DHT22;6281;49.038;8.372;2023-02-13T15:52:18;12.20;99.90
12434;DHT22;6281;49.038;8.372;2023-02-13T15:54:51;12.80;99.90
12434;DHT22;6281;49.038;8.372;2023-02-13T15:57:19;12.80;99.90
12434;DHT22;6281;49.038;8.372;2023-02-13T15:59:48;12.00;99.90
12434;DHT22;6281;49.038;8.372;2023-02-13T16:02:18;12.20;99.90
12434;DHT22;6281;49.038;8.372;2023-02-13T16:04:47;11.70;99.90
12434;DHT22;6281;49.038;8.372;2023-02-13T16:07:15;12.10;99.90
12434;DHT22;6281;49.038;8.372;2023-02-13T16:09:42;12.40;99.90
12434;DHT22;6281;49.038;8.372;2023-02-13T16:12:19;12.10;99.90
12434;DHT22;6281;49.038;8.372;2023-02-13T16:14:50;11.80;99.90
12434;DHT22;6281;49.038;8.372;2023-02-13T16:17:25;11.50;99.90
12434;DHT22;6281;49.038;8.372;2023-02-13T16:19:56;11.10;99.90
12434;DHT22;6281;49.038;8.372;2023-02-13T16:22:30;10.90;99.90
12434;DHT22;6281;49.038;8.372;2023-02-13T16:25:13;11.00;99.90
12434;DHT22;6281;49.038;8.372;2023-02-13T16:27:43;11.00;99.90
12434;DHT22;6281;49.038;8.372;2023-02-13T16:30:27;10.20;99.90
12434;DHT22;6281;49.038;8.372;2023-02-13T16:33:22;10.00;99.90
12434;DHT22;6281;49.038;8.372;2023-02-13T16:35:51;9.20;99.90
12434;DHT22;6281;49.038;8.372;2023-02-13T16:38:26;9.50;99.90
12434;DHT22;6281;49.038;8.372;2023-02-13T16:40:54;9.50;99.90
12434;DHT22;6281;49.038;8.372;2023-02-13T16:43:43;9.30;99.90
12434;DHT22;6281;49.038;8.372;2023-02-13T16:46:22;9.60;99.90
12434;DHT22;6281;49.038;8.372;2023-02-13T16:49:18;9.20;99.90
12434;DHT22;6281;49.038;8.372;2023-02-13T16:51:48;9.30;99.90
12434;DHT22;6281;49.038;8.372;2023-02-13T16:54:22;8.40;99.90
12434;DHT22;6281;49.038;8.372;2023-02-13T16:56:52;8.40;99.90